sensor_id;sensor_type;location;lat;lon;timestamp;P1;durP1;ratioP1;P2;durP2;ratioP2
54177;SDS011;40085;53.004;6.770;2022-09-03T00:07:55;0.65;;;0.50;;
54177;SDS011;40085;53.004;6.770;2022-09-03T00:10:25;0.40;;;0.40;;
54177;SDS011;40085;53.004;6.770;2022-09-03T00:12:56;1.92;;;0.70;;
54177;SDS011;40085;53.004;6.770;2022-09-03T00:15:26;0.40;;;0.40;;
54177;SDS011;40085;53.004;6.770;2022-09-03T00:17:58;0.90;;;0.43;;
54177;SDS011;40085;53.004;6.770;2022-09-03T00:20:34;3.67;;;0.38;;
54177;SDS011;40085;53.004;6.770;2022-09-03T00:23:33;0.50;;;0.40;;
54177;SDS011;40085;53.004;6.770;2022-09-03T00:28:41;2.17;;;0.52;;
54177;SDS011;40085;53.004;6.770;2022-09-03T00:31:14;0.88;;;0.50;;
54177;SDS011;40085;53.004;6.770;2022-09-03T00:33:43;0.60;;;0.60;;
54177;SDS011;40085;53.004;6.770;2022-09-03T00:36:13;1.10;;;0.50;;
54177;SDS011;40085;53.004;6.770;2022-09-03T00:38:44;0.60;;;0.50;;
54177;SDS011;40085;53.004;6.770;2022-09-03T00:41:20;0.55;;;0.43;;
54177;SDS011;40085;53.004;6.770;2022-09-03T00:46:58;1.58;;;0.82;;
54177;SDS011;40085;53.004;6.770;2022-09-03T01:00:37;0.65;;;0.50;;
54177;SDS011;40085;53.004;6.770;2022-09-03T01:03:08;0.75;;;0.60;;
54177;SDS011;40085;53.004;6.770;2022-09-03T01:30:22;0.77;;;0.47;;
54177;SDS011;40085;53.004;6.770;2022-09-03T01:33:02;0.43;;;0.40;;
54177;SDS011;40085;53.004;6.770;2022-09-03T01:35:52;0.50;;;0.50;;
54177;SDS011;40085;53.004;6.770;2022-09-03T01:38:43;0.40;;;0.40;;
54177;SDS011;40085;53.004;6.770;2022-09-03T01:47:16;0.60;;;0.60;;
54177;SDS011;40085;53.004;6.770;2022-09-03T01:55:30;0.50;;;0.40;;
54177;SDS011;40085;53.004;6.770;2022-09-03T01:58:26;0.68;;;0.40;;
54177;SDS011;40085;53.004;6.770;2022-09-03T02:00:59;1.33;;;0.70;;
54177;SDS011;40085;53.004;6.770;2022-09-03T02:03:38;0.50;;;0.43;;
54177;SDS011;40085;53.004;6.770;2022-09-03T02:06:07;0.45;;;0.40;;
54177;SDS011;40085;53.004;6.770;2022-09-03T02:08:35;0.65;;;0.50;;
54177;SDS011;40085;53.004;6.770;2022-09-03T02:11:00;0.63;;;0.50;;
54177;SDS011;40085;53.004;6.770;2022-09-03T02:16:00;0.93;;;0.63;;
54177;SDS011;40085;53.004;6.770;2022-09-03T02:18:32;2.33;;;0.80;;
54177;SDS011;40085;53.004;6.770;2022-09-03T02:21:01;0.30;;;0.30;;
54177;SDS011;40085;53.004;6.770;2022-09-03T02:23:27;0.65;;;0.40;;
54177;SDS011;40085;53.004;6.770;2022-09-03T02:25:57;0.38;;;0.38;;
54177;SDS011;40085;53.004;6.770;2022-09-03T02:28:25;1.15;;;0.50;;
54177;SDS011;40085;53.004;6.770;2022-09-03T02:30:52;0.55;;;0.55;;
54177;SDS011;40085;53.004;6.770;2022-09-03T02:33:18;0.65;;;0.50;;
54177;SDS011;40085;53.004;6.770;2022-09-03T02:35:44;1.88;;;0.57;;
54177;SDS011;40085;53.004;6.770;2022-09-03T02:38:21;0.98;;;0.60;;
54177;SDS011;40085;53.004;6.770;2022-09-03T02:40:52;0.63;;;0.52;;
54177;SDS011;40085;53.004;6.770;2022-09-03T02:46:09;0.93;;;0.50;;
54177;SDS011;40085;53.004;6.770;2022-09-03T02:48:41;0.50;;;0.50;;
54177;SDS011;40085;53.004;6.770;2022-09-03T02:51:06;0.45;;;0.40;;
54177;SDS011;40085;53.004;6.770;2022-09-03T02:53:32;4.57;;;0.80;;
54177;SDS011;40085;53.004;6.770;2022-09-03T02:55:59;0.60;;;0.60;;
54177;SDS011;40085;53.004;6.770;2022-09-03T02:58:25;1.35;;;0.60;;
54177;SDS011;40085;53.004;6.770;2022-09-03T03:00:52;0.52;;;0.47;;
54177;SDS011;40085;53.004;6.770;2022-09-03T03:03:18;0.80;;;0.60;;
54177;SDS011;40085;53.004;6.770;2022-09-03T03:05:46;0.55;;;0.55;;
54177;SDS011;40085;53.004;6.770;2022-09-03T03:08:14;0.60;;;0.60;;
54177;SDS011;40085;53.004;6.770;2022-09-03T03:10:41;0.50;;;0.50;;
54177;SDS011;40085;53.004;6.770;2022-09-03T03:13:09;1.55;;;0.80;;
54177;SDS011;40085;53.004;6.770;2022-09-03T03:15:35;0.57;;;0.57;;
54177;SDS011;40085;53.004;6.770;2022-09-03T03:18:01;1.02;;;0.65;;
54177;SDS011;40085;53.004;6.770;2022-09-03T03:20:26;1.15;;;0.60;;
54177;SDS011;40085;53.004;6.770;2022-09-03T03:22:52;0.75;;;0.55;;
54177;SDS011;40085;53.004;6.770;2022-09-03T03:25:18;0.35;;;0.35;;
54177;SDS011;40085;53.004;6.770;2022-09-03T03:27:44;1.30;;;0.68;;
54177;SDS011;40085;53.004;6.770;2022-09-03T03:30:10;0.95;;;0.60;;
54177;SDS011;40085;53.004;6.770;2022-09-03T03:32:36;2.40;;;0.57;;
54177;SDS011;40085;53.004;6.770;2022-09-03T03:35:03;0.93;;;0.50;;
54177;SDS011;40085;53.004;6.770;2022-09-03T03:37:29;3.00;;;0.47;;
54177;SDS011;40085;53.004;6.770;2022-09-03T03:39:56;0.40;;;0.40;;
54177;SDS011;40085;53.004;6.770;2022-09-03T03:42:21;0.63;;;0.50;;
54177;SDS011;40085;53.004;6.770;2022-09-03T03:44:47;0.65;;;0.60;;
54177;SDS011;40085;53.004;6.770;2022-09-03T03:47:13;1.15;;;0.60;;
54177;SDS011;40085;53.004;6.770;2022-09-03T03:49:41;0.52;;;0.52;;
54177;SDS011;40085;53.004;6.770;2022-09-03T03:52:07;1.08;;;0.73;;
54177;SDS011;40085;53.004;6.770;2022-09-03T03:54:32;0.40;;;0.40;;
54177;SDS011;40085;53.004;6.770;2022-09-03T03:56:58;0.65;;;0.60;;
54177;SDS011;40085;53.004;6.770;2022-09-03T03:59:24;0.55;;;0.55;;
54177;SDS011;40085;53.004;6.770;2022-09-03T04:01:50;1.00;;;0.60;;
54177;SDS011;40085;53.004;6.770;2022-09-03T04:04:18;0.65;;;0.52;;
54177;SDS011;40085;53.004;6.770;2022-09-03T04:06:44;2.38;;;0.60;;
54177;SDS011;40085;53.004;6.770;2022-09-03T04:09:09;2.45;;;0.70;;
54177;SDS011;40085;53.004;6.770;2022-09-03T04:11:35;1.15;;;0.68;;
54177;SDS011;40085;53.004;6.770;2022-09-03T04:14:01;0.60;;;0.60;;
54177;SDS011;40085;53.004;6.770;2022-09-03T04:16:27;1.13;;;0.70;;
54177;SDS011;40085;53.004;6.770;2022-09-03T04:18:53;0.80;;;0.50;;
54177;SDS011;40085;53.004;6.770;2022-09-03T04:21:21;2.55;;;0.73;;
54177;SDS011;40085;53.004;6.770;2022-09-03T04:23:49;0.93;;;0.73;;
54177;SDS011;40085;53.004;6.770;2022-09-03T04:26:20;0.80;;;0.70;;
54177;SDS011;40085;53.004;6.770;2022-09-03T04:28:48;1.50;;;0.63;;
54177;SDS011;40085;53.004;6.770;2022-09-03T04:31:15;1.00;;;0.70;;
54177;SDS011;40085;53.004;6.770;2022-09-03T04:33:41;0.70;;;0.70;;
54177;SDS011;40085;53.004;6.770;2022-09-03T04:36:09;1.63;;;0.90;;
54177;SDS011;40085;53.004;6.770;2022-09-03T04:38:43;0.68;;;0.63;;
54177;SDS011;40085;53.004;6.770;2022-09-03T04:41:11;0.85;;;0.70;;
54177;SDS011;40085;53.004;6.770;2022-09-03T04:46:08;0.60;;;0.60;;
54177;SDS011;40085;53.004;6.770;2022-09-03T04:48:35;1.20;;;0.70;;
54177;SDS011;40085;53.004;6.770;2022-09-03T04:53:31;1.25;;;0.82;;
54177;SDS011;40085;53.004;6.770;2022-09-03T04:55:57;2.33;;;0.90;;
54177;SDS011;40085;53.004;6.770;2022-09-03T04:58:23;1.08;;;0.85;;
54177;SDS011;40085;53.004;6.770;2022-09-03T05:00:49;1.13;;;0.70;;
54177;SDS011;40085;53.004;6.770;2022-09-03T05:03:14;1.88;;;0.88;;
54177;SDS011;40085;53.004;6.770;2022-09-03T05:05:40;1.40;;;0.88;;
54177;SDS011;40085;53.004;6.770;2022-09-03T05:08:06;2.03;;;1.02;;
54177;SDS011;40085;53.004;6.770;2022-09-03T05:10:32;1.20;;;0.85;;
54177;SDS011;40085;53.004;6.770;2022-09-03T05:13:02;1.20;;;1.00;;
54177;SDS011;40085;53.004;6.770;2022-09-03T05:15:29;0.63;;;0.63;;
54177;SDS011;40085;53.004;6.770;2022-09-03T05:18:00;1.08;;;0.90;;
54177;SDS011;40085;53.004;6.770;2022-09-03T05:20:27;1.27;;;0.85;;
54177;SDS011;40085;53.004;6.770;2022-09-03T05:22:55;2.60;;;1.17;;
54177;SDS011;40085;53.004;6.770;2022-09-03T05:25:21;1.20;;;0.80;;
54177;SDS011;40085;53.004;6.770;2022-09-03T05:27:48;1.73;;;1.00;;
54177;SDS011;40085;53.004;6.770;2022-09-03T05:30:14;3.10;;;1.00;;
54177;SDS011;40085;53.004;6.770;2022-09-03T05:32:40;1.42;;;0.95;;
54177;SDS011;40085;53.004;6.770;2022-09-03T05:35:07;2.60;;;0.85;;
54177;SDS011;40085;53.004;6.770;2022-09-03T05:37:35;1.25;;;0.80;;
54177;SDS011;40085;53.004;6.770;2022-09-03T05:40:01;1.38;;;0.93;;
54177;SDS011;40085;53.004;6.770;2022-09-03T05:42:27;2.20;;;1.00;;
54177;SDS011;40085;53.004;6.770;2022-09-03T05:44:54;2.72;;;1.20;;
54177;SDS011;40085;53.004;6.770;2022-09-03T05:47:21;0.90;;;0.70;;
54177;SDS011;40085;53.004;6.770;2022-09-03T05:49:47;1.13;;;1.02;;
54177;SDS011;40085;53.004;6.770;2022-09-03T05:52:12;2.20;;;1.10;;
54177;SDS011;40085;53.004;6.770;2022-09-03T05:54:38;1.42;;;1.02;;
54177;SDS011;40085;53.004;6.770;2022-09-03T05:57:04;1.20;;;0.90;;
54177;SDS011;40085;53.004;6.770;2022-09-03T05:59:29;2.45;;;1.15;;
54177;SDS011;40085;53.004;6.770;2022-09-03T06:01:55;1.80;;;1.10;;
54177;SDS011;40085;53.004;6.770;2022-09-03T06:04:21;1.88;;;1.05;;
54177;SDS011;40085;53.004;6.770;2022-09-03T06:06:47;1.60;;;1.00;;
54177;SDS011;40085;53.004;6.770;2022-09-03T06:09:14;2.03;;;1.10;;
54177;SDS011;40085;53.004;6.770;2022-09-03T06:11:42;1.80;;;1.17;;
54177;SDS011;40085;53.004;6.770;2022-09-03T06:14:10;1.42;;;0.88;;
54177;SDS011;40085;53.004;6.770;2022-09-03T06:16:40;1.70;;;1.10;;
54177;SDS011;40085;53.004;6.770;2022-09-03T06:19:08;1.67;;;0.95;;
54177;SDS011;40085;53.004;6.770;2022-09-03T06:21:38;1.90;;;0.98;;
54177;SDS011;40085;53.004;6.770;2022-09-03T06:24:07;1.25;;;0.90;;
54177;SDS011;40085;53.004;6.770;2022-09-03T06:26:38;3.80;;;1.35;;
54177;SDS011;40085;53.004;6.770;2022-09-03T06:29:04;2.33;;;1.00;;
54177;SDS011;40085;53.004;6.770;2022-09-03T06:31:30;1.33;;;0.95;;
54177;SDS011;40085;53.004;6.770;2022-09-03T06:33:56;1.45;;;0.80;;
54177;SDS011;40085;53.004;6.770;2022-09-03T06:36:22;1.35;;;0.90;;
54177;SDS011;40085;53.004;6.770;2022-09-03T06:38:52;1.50;;;1.00;;
54177;SDS011;40085;53.004;6.770;2022-09-03T06:41:20;1.63;;;1.02;;
54177;SDS011;40085;53.004;6.770;2022-09-03T06:44:11;2.05;;;1.15;;
54177;SDS011;40085;53.004;6.770;2022-09-03T06:46:37;3.38;;;1.50;;
54177;SDS011;40085;53.004;6.770;2022-09-03T06:49:06;2.05;;;1.30;;
54177;SDS011;40085;53.004;6.770;2022-09-03T06:51:32;3.88;;;1.10;;
54177;SDS011;40085;53.004;6.770;2022-09-03T06:54:02;2.70;;;1.30;;
54177;SDS011;40085;53.004;6.770;2022-09-03T06:56:30;1.58;;;1.00;;
54177;SDS011;40085;53.004;6.770;2022-09-03T06:58:57;1.52;;;0.73;;
54177;SDS011;40085;53.004;6.770;2022-09-03T07:01:25;1.80;;;1.30;;
54177;SDS011;40085;53.004;6.770;2022-09-03T07:06:23;1.70;;;0.98;;
54177;SDS011;40085;53.004;6.770;2022-09-03T07:08:51;1.08;;;0.82;;
54177;SDS011;40085;53.004;6.770;2022-09-03T07:11:19;0.90;;;0.77;;
54177;SDS011;40085;53.004;6.770;2022-09-03T07:13:48;2.40;;;1.00;;
54177;SDS011;40085;53.004;6.770;2022-09-03T07:16:17;0.85;;;0.68;;
54177;SDS011;40085;53.004;6.770;2022-09-03T07:18:53;1.85;;;0.95;;
54177;SDS011;40085;53.004;6.770;2022-09-03T07:21:24;1.23;;;0.90;;
54177;SDS011;40085;53.004;6.770;2022-09-03T07:23:51;2.22;;;1.10;;
54177;SDS011;40085;53.004;6.770;2022-09-03T07:26:19;1.40;;;0.90;;
54177;SDS011;40085;53.004;6.770;2022-09-03T07:28:49;1.25;;;1.00;;
54177;SDS011;40085;53.004;6.770;2022-09-03T07:31:32;2.55;;;0.80;;
54177;SDS011;40085;53.004;6.770;2022-09-03T07:34:00;1.98;;;0.90;;
54177;SDS011;40085;53.004;6.770;2022-09-03T07:36:30;1.92;;;1.02;;
54177;SDS011;40085;53.004;6.770;2022-09-03T07:41:37;0.82;;;0.70;;
54177;SDS011;40085;53.004;6.770;2022-09-03T07:44:07;1.38;;;0.80;;
54177;SDS011;40085;53.004;6.770;2022-09-03T07:46:34;1.35;;;0.70;;
54177;SDS011;40085;53.004;6.770;2022-09-03T07:49:01;0.70;;;0.70;;
54177;SDS011;40085;53.004;6.770;2022-09-03T07:51:28;0.65;;;0.63;;
54177;SDS011;40085;53.004;6.770;2022-09-03T07:53:56;1.90;;;0.73;;
54177;SDS011;40085;53.004;6.770;2022-09-03T07:56:24;0.98;;;0.80;;
54177;SDS011;40085;53.004;6.770;2022-09-03T07:58:51;1.05;;;0.63;;
54177;SDS011;40085;53.004;6.770;2022-09-03T08:01:18;1.67;;;0.90;;
54177;SDS011;40085;53.004;6.770;2022-09-03T08:03:45;1.20;;;0.73;;
54177;SDS011;40085;53.004;6.770;2022-09-03T08:06:13;1.48;;;1.00;;
54177;SDS011;40085;53.004;6.770;2022-09-03T08:08:40;0.93;;;0.80;;
54177;SDS011;40085;53.004;6.770;2022-09-03T08:11:12;0.60;;;0.60;;
54177;SDS011;40085;53.004;6.770;2022-09-03T08:13:53;1.27;;;0.77;;
54177;SDS011;40085;53.004;6.770;2022-09-03T08:16:27;1.90;;;1.00;;
54177;SDS011;40085;53.004;6.770;2022-09-03T08:18:54;0.85;;;0.73;;
54177;SDS011;40085;53.004;6.770;2022-09-03T08:21:21;1.02;;;0.70;;
54177;SDS011;40085;53.004;6.770;2022-09-03T08:23:48;0.98;;;0.70;;
54177;SDS011;40085;53.004;6.770;2022-09-03T08:26:16;0.75;;;0.60;;
54177;SDS011;40085;53.004;6.770;2022-09-03T08:28:44;0.50;;;0.50;;
54177;SDS011;40085;53.004;6.770;2022-09-03T08:31:11;1.73;;;0.90;;
54177;SDS011;40085;53.004;6.770;2022-09-03T08:33:42;1.20;;;0.75;;
54177;SDS011;40085;53.004;6.770;2022-09-03T08:36:11;1.13;;;0.73;;
54177;SDS011;40085;53.004;6.770;2022-09-03T08:38:38;2.47;;;0.95;;
54177;SDS011;40085;53.004;6.770;2022-09-03T08:46:26;1.08;;;0.77;;
54177;SDS011;40085;53.004;6.770;2022-09-03T08:49:54;1.15;;;0.63;;
54177;SDS011;40085;53.004;6.770;2022-09-03T08:55:13;2.47;;;0.77;;
54177;SDS011;40085;53.004;6.770;2022-09-03T08:58:04;2.08;;;1.13;;
54177;SDS011;40085;53.004;6.770;2022-09-03T09:03:37;2.17;;;0.60;;
54177;SDS011;40085;53.004;6.770;2022-09-03T09:06:44;1.02;;;0.75;;
54177;SDS011;40085;53.004;6.770;2022-09-03T09:09:37;0.70;;;0.50;;
54177;SDS011;40085;53.004;6.770;2022-09-03T09:23:06;4.18;;;0.93;;
54177;SDS011;40085;53.004;6.770;2022-09-03T09:25:40;1.02;;;0.70;;
54177;SDS011;40085;53.004;6.770;2022-09-03T09:30:44;0.73;;;0.73;;
54177;SDS011;40085;53.004;6.770;2022-09-03T09:33:12;1.13;;;0.70;;
54177;SDS011;40085;53.004;6.770;2022-09-03T09:35:39;1.02;;;0.55;;
54177;SDS011;40085;53.004;6.770;2022-09-03T09:38:07;1.27;;;0.77;;
54177;SDS011;40085;53.004;6.770;2022-09-03T09:40:34;0.50;;;0.50;;
54177;SDS011;40085;53.004;6.770;2022-09-03T09:43:03;0.88;;;0.50;;
54177;SDS011;40085;53.004;6.770;2022-09-03T09:45:32;1.47;;;0.80;;
54177;SDS011;40085;53.004;6.770;2022-09-03T09:47:59;0.90;;;0.73;;
54177;SDS011;40085;53.004;6.770;2022-09-03T09:50:27;1.02;;;0.60;;
54177;SDS011;40085;53.004;6.770;2022-09-03T09:53:03;0.90;;;0.80;;
54177;SDS011;40085;53.004;6.770;2022-09-03T09:55:47;0.60;;;0.45;;
54177;SDS011;40085;53.004;6.770;2022-09-03T09:58:13;0.52;;;0.52;;
54177;SDS011;40085;53.004;6.770;2022-09-03T10:00:39;0.85;;;0.75;;
54177;SDS011;40085;53.004;6.770;2022-09-03T10:03:09;1.75;;;0.55;;
54177;SDS011;40085;53.004;6.770;2022-09-03T10:05:37;1.20;;;0.75;;
54177;SDS011;40085;53.004;6.770;2022-09-03T10:08:25;1.25;;;0.70;;
54177;SDS011;40085;53.004;6.770;2022-09-03T10:10:50;1.85;;;0.60;;
54177;SDS011;40085;53.004;6.770;2022-09-03T10:13:27;1.52;;;0.70;;
54177;SDS011;40085;53.004;6.770;2022-09-03T10:16:01;1.20;;;0.65;;
54177;SDS011;40085;53.004;6.770;2022-09-03T10:18:42;1.15;;;0.70;;
54177;SDS011;40085;53.004;6.770;2022-09-03T10:21:11;0.55;;;0.47;;
54177;SDS011;40085;53.004;6.770;2022-09-03T10:23:49;0.55;;;0.55;;
54177;SDS011;40085;53.004;6.770;2022-09-03T10:26:24;0.65;;;0.50;;
54177;SDS011;40085;53.004;6.770;2022-09-03T10:28:56;0.50;;;0.50;;
54177;SDS011;40085;53.004;6.770;2022-09-03T10:31:39;0.60;;;0.50;;
54177;SDS011;40085;53.004;6.770;2022-09-03T10:51:02;0.82;;;0.55;;
54177;SDS011;40085;53.004;6.770;2022-09-03T10:56:31;2.28;;;0.70;;
54177;SDS011;40085;53.004;6.770;2022-09-03T11:07:13;1.20;;;0.68;;
54177;SDS011;40085;53.004;6.770;2022-09-03T11:12:32;0.57;;;0.57;;
54177;SDS011;40085;53.004;6.770;2022-09-03T11:18:08;0.65;;;0.47;;
54177;SDS011;40085;53.004;6.770;2022-09-03T11:20:38;0.60;;;0.55;;
54177;SDS011;40085;53.004;6.770;2022-09-03T11:23:06;0.85;;;0.60;;
54177;SDS011;40085;53.004;6.770;2022-09-03T11:25:40;0.88;;;0.70;;
54177;SDS011;40085;53.004;6.770;2022-09-03T11:31:01;1.13;;;0.50;;
54177;SDS011;40085;53.004;6.770;2022-09-03T11:33:53;1.15;;;0.60;;
54177;SDS011;40085;53.004;6.770;2022-09-03T11:36:43;0.57;;;0.43;;
54177;SDS011;40085;53.004;6.770;2022-09-03T11:39:19;1.13;;;0.70;;
54177;SDS011;40085;53.004;6.770;2022-09-03T11:42:11;0.80;;;0.60;;
54177;SDS011;40085;53.004;6.770;2022-09-03T11:44:49;0.60;;;0.45;;
54177;SDS011;40085;53.004;6.770;2022-09-03T11:49:45;1.13;;;0.57;;
54177;SDS011;40085;53.004;6.770;2022-09-03T11:52:24;0.50;;;0.47;;
54177;SDS011;40085;53.004;6.770;2022-09-03T11:55:04;1.90;;;0.70;;
54177;SDS011;40085;53.004;6.770;2022-09-03T11:57:32;0.98;;;0.50;;
54177;SDS011;40085;53.004;6.770;2022-09-03T12:00:12;1.77;;;0.70;;
54177;SDS011;40085;53.004;6.770;2022-09-03T12:02:55;1.58;;;0.60;;
54177;SDS011;40085;53.004;6.770;2022-09-03T12:13:15;0.63;;;0.50;;
54177;SDS011;40085;53.004;6.770;2022-09-03T12:15:59;0.73;;;0.68;;
54177;SDS011;40085;53.004;6.770;2022-09-03T12:18:30;2.97;;;0.68;;
54177;SDS011;40085;53.004;6.770;2022-09-03T12:26:00;0.77;;;0.60;;
54177;SDS011;40085;53.004;6.770;2022-09-03T12:28:33;2.53;;;0.70;;
54177;SDS011;40085;53.004;6.770;2022-09-03T12:31:05;0.90;;;0.65;;
54177;SDS011;40085;53.004;6.770;2022-09-03T12:33:52;0.40;;;0.40;;
54177;SDS011;40085;53.004;6.770;2022-09-03T12:36:42;2.30;;;0.60;;
54177;SDS011;40085;53.004;6.770;2022-09-03T12:39:17;0.57;;;0.43;;
54177;SDS011;40085;53.004;6.770;2022-09-03T12:41:58;1.13;;;0.68;;
54177;SDS011;40085;53.004;6.770;2022-09-03T12:44:37;0.73;;;0.50;;
54177;SDS011;40085;53.004;6.770;2022-09-03T12:47:06;1.70;;;0.50;;
54177;SDS011;40085;53.004;6.770;2022-09-03T12:49:38;1.05;;;0.60;;
54177;SDS011;40085;53.004;6.770;2022-09-03T12:52:12;1.05;;;0.50;;
54177;SDS011;40085;53.004;6.770;2022-09-03T12:54:57;0.40;;;0.40;;
54177;SDS011;40085;53.004;6.770;2022-09-03T13:00:34;0.82;;;0.60;;
54177;SDS011;40085;53.004;6.770;2022-09-03T13:03:08;0.57;;;0.40;;
54177;SDS011;40085;53.004;6.770;2022-09-03T13:05:44;1.45;;;0.73;;
54177;SDS011;40085;53.004;6.770;2022-09-03T13:08:20;0.70;;;0.55;;
54177;SDS011;40085;53.004;6.770;2022-09-03T13:10:52;1.00;;;0.50;;
54177;SDS011;40085;53.004;6.770;2022-09-03T13:13:32;1.03;;;0.50;;
54177;SDS011;40085;53.004;6.770;2022-09-03T13:34:57;1.55;;;0.70;;
54177;SDS011;40085;53.004;6.770;2022-09-03T13:40:13;0.63;;;0.45;;
54177;SDS011;40085;53.004;6.770;2022-09-03T13:42:49;0.65;;;0.50;;
54177;SDS011;40085;53.004;6.770;2022-09-03T13:46:22;1.67;;;0.73;;
54177;SDS011;40085;53.004;6.770;2022-09-03T13:48:44;1.15;;;0.50;;
54177;SDS011;40085;53.004;6.770;2022-09-03T13:51:29;0.65;;;0.60;;
54177;SDS011;40085;53.004;6.770;2022-09-03T13:56:49;0.50;;;0.50;;
54177;SDS011;40085;53.004;6.770;2022-09-03T14:16:36;0.82;;;0.50;;
54177;SDS011;40085;53.004;6.770;2022-09-03T14:19:09;2.97;;;0.70;;
54177;SDS011;40085;53.004;6.770;2022-09-03T14:21:49;0.55;;;0.43;;
54177;SDS011;40085;53.004;6.770;2022-09-03T14:27:12;0.60;;;0.40;;
54177;SDS011;40085;53.004;6.770;2022-09-03T14:29:57;1.50;;;0.57;;
54177;SDS011;40085;53.004;6.770;2022-09-03T14:40:13;1.17;;;0.60;;
54177;SDS011;40085;53.004;6.770;2022-09-03T14:42:54;2.15;;;0.95;;
54177;SDS011;40085;53.004;6.770;2022-09-03T15:00:07;0.52;;;0.43;;
54177;SDS011;40085;53.004;6.770;2022-09-03T15:25:47;0.50;;;0.50;;
54177;SDS011;40085;53.004;6.770;2022-09-03T15:31:21;0.40;;;0.40;;
54177;SDS011;40085;53.004;6.770;2022-09-03T15:34:18;1.08;;;0.60;;
54177;SDS011;40085;53.004;6.770;2022-09-03T15:37:29;0.90;;;0.65;;
54177;SDS011;40085;53.004;6.770;2022-09-03T15:40:19;0.57;;;0.50;;
54177;SDS011;40085;53.004;6.770;2022-09-03T15:42:59;1.30;;;0.52;;
54177;SDS011;40085;53.004;6.770;2022-09-03T15:45:37;0.77;;;0.60;;
54177;SDS011;40085;53.004;6.770;2022-09-03T15:48:31;0.45;;;0.45;;
54177;SDS011;40085;53.004;6.770;2022-09-03T15:56:51;1.35;;;0.80;;
54177;SDS011;40085;53.004;6.770;2022-09-03T16:02:05;1.05;;;0.60;;
54177;SDS011;40085;53.004;6.770;2022-09-03T16:07:25;1.63;;;1.00;;
54177;SDS011;40085;53.004;6.770;2022-09-03T16:12:40;1.35;;;0.80;;
54177;SDS011;40085;53.004;6.770;2022-09-03T16:15:11;1.40;;;0.77;;
54177;SDS011;40085;53.004;6.770;2022-09-03T16:17:55;3.28;;;1.48;;
54177;SDS011;40085;53.004;6.770;2022-09-03T16:20:48;1.45;;;0.82;;
54177;SDS011;40085;53.004;6.770;2022-09-03T16:23:44;2.80;;;0.75;;
54177;SDS011;40085;53.004;6.770;2022-09-03T16:28:58;0.95;;;0.70;;
54177;SDS011;40085;53.004;6.770;2022-09-03T16:31:34;1.10;;;0.80;;
54177;SDS011;40085;53.004;6.770;2022-09-03T16:55:58;1.02;;;0.77;;
54177;SDS011;40085;53.004;6.770;2022-09-03T17:20:09;1.00;;;0.70;;
54177;SDS011;40085;53.004;6.770;2022-09-03T17:41:51;1.10;;;0.73;;
54177;SDS011;40085;53.004;6.770;2022-09-03T17:44:28;1.70;;;0.90;;
54177;SDS011;40085;53.004;6.770;2022-09-03T17:50:45;1.42;;;0.70;;
54177;SDS011;40085;53.004;6.770;2022-09-03T17:52:55;0.95;;;0.70;;
54177;SDS011;40085;53.004;6.770;2022-09-03T17:55:40;1.13;;;0.73;;
54177;SDS011;40085;53.004;6.770;2022-09-03T17:58:28;2.03;;;0.90;;
54177;SDS011;40085;53.004;6.770;2022-09-03T18:03:40;1.00;;;0.90;;
54177;SDS011;40085;53.004;6.770;2022-09-03T18:06:31;0.50;;;0.50;;
54177;SDS011;40085;53.004;6.770;2022-09-03T18:09:10;0.73;;;0.70;;
54177;SDS011;40085;53.004;6.770;2022-09-03T18:12:10;0.80;;;0.68;;
54177;SDS011;40085;53.004;6.770;2022-09-03T18:17:47;2.58;;;1.20;;
54177;SDS011;40085;53.004;6.770;2022-09-03T18:20:18;2.45;;;1.08;;
54177;SDS011;40085;53.004;6.770;2022-09-03T18:26:05;1.63;;;0.88;;
54177;SDS011;40085;53.004;6.770;2022-09-03T18:29:05;1.45;;;0.90;;
54177;SDS011;40085;53.004;6.770;2022-09-03T18:31:50;1.83;;;0.90;;
54177;SDS011;40085;53.004;6.770;2022-09-03T18:34:35;1.70;;;1.00;;
54177;SDS011;40085;53.004;6.770;2022-09-03T18:37:21;1.73;;;0.85;;
54177;SDS011;40085;53.004;6.770;2022-09-03T18:40:06;1.98;;;1.10;;
54177;SDS011;40085;53.004;6.770;2022-09-03T18:45:39;0.77;;;0.70;;
54177;SDS011;40085;53.004;6.770;2022-09-03T18:48:34;1.42;;;0.80;;
54177;SDS011;40085;53.004;6.770;2022-09-03T18:54:20;1.67;;;1.02;;
54177;SDS011;40085;53.004;6.770;2022-09-03T18:57:14;1.20;;;1.10;;
54177;SDS011;40085;53.004;6.770;2022-09-03T19:09:04;1.52;;;1.20;;
54177;SDS011;40085;53.004;6.770;2022-09-03T19:15:28;2.33;;;1.85;;
54177;SDS011;40085;53.004;6.770;2022-09-03T19:21:47;2.38;;;1.23;;
54177;SDS011;40085;53.004;6.770;2022-09-03T19:24:37;3.85;;;1.35;;
54177;SDS011;40085;53.004;6.770;2022-09-03T19:30:28;3.22;;;1.25;;
54177;SDS011;40085;53.004;6.770;2022-09-03T19:33:39;2.58;;;1.38;;
54177;SDS011;40085;53.004;6.770;2022-09-03T19:48:46;3.30;;;1.92;;
54177;SDS011;40085;53.004;6.770;2022-09-03T19:54:57;2.97;;;1.95;;
54177;SDS011;40085;53.004;6.770;2022-09-03T19:57:42;3.38;;;1.48;;
54177;SDS011;40085;53.004;6.770;2022-09-03T20:00:29;5.45;;;1.55;;
54177;SDS011;40085;53.004;6.770;2022-09-03T20:03:15;2.25;;;1.55;;
54177;SDS011;40085;53.004;6.770;2022-09-03T20:06:03;3.63;;;1.30;;
54177;SDS011;40085;53.004;6.770;2022-09-03T20:08:49;1.83;;;1.60;;
54177;SDS011;40085;53.004;6.770;2022-09-03T20:11:35;2.05;;;1.10;;
54177;SDS011;40085;53.004;6.770;2022-09-03T20:14:03;1.10;;;1.00;;
54177;SDS011;40085;53.004;6.770;2022-09-03T20:30:58;1.13;;;0.90;;
54177;SDS011;40085;53.004;6.770;2022-09-03T20:33:37;2.22;;;1.20;;
54177;SDS011;40085;53.004;6.770;2022-09-03T20:36:37;1.42;;;0.88;;
54177;SDS011;40085;53.004;6.770;2022-09-03T20:42:21;1.67;;;1.17;;
54177;SDS011;40085;53.004;6.770;2022-09-03T20:44:53;0.90;;;0.70;;
54177;SDS011;40085;53.004;6.770;2022-09-03T20:55:56;1.50;;;1.02;;
54177;SDS011;40085;53.004;6.770;2022-09-03T21:01:32;1.58;;;1.08;;
54177;SDS011;40085;53.004;6.770;2022-09-03T21:04:56;2.30;;;1.23;;
54177;SDS011;40085;53.004;6.770;2022-09-03T21:07:11;1.45;;;1.05;;
54177;SDS011;40085;53.004;6.770;2022-09-03T21:25:44;1.35;;;0.90;;
54177;SDS011;40085;53.004;6.770;2022-09-03T21:28:33;1.45;;;0.85;;
54177;SDS011;40085;53.004;6.770;2022-09-03T21:33:54;1.83;;;1.17;;
54177;SDS011;40085;53.004;6.770;2022-09-03T21:39:08;1.77;;;1.05;;
54177;SDS011;40085;53.004;6.770;2022-09-03T21:41:43;4.05;;;1.10;;
54177;SDS011;40085;53.004;6.770;2022-09-03T21:44:57;1.85;;;0.90;;
54177;SDS011;40085;53.004;6.770;2022-09-03T21:47:22;0.77;;;0.68;;
54177;SDS011;40085;53.004;6.770;2022-09-03T21:52:22;1.13;;;0.82;;
54177;SDS011;40085;53.004;6.770;2022-09-03T21:55:19;1.85;;;1.05;;
54177;SDS011;40085;53.004;6.770;2022-09-03T22:00:44;0.85;;;0.85;;
54177;SDS011;40085;53.004;6.770;2022-09-03T22:03:12;1.67;;;0.82;;
54177;SDS011;40085;53.004;6.770;2022-09-03T22:05:58;0.82;;;0.80;;
54177;SDS011;40085;53.004;6.770;2022-09-03T22:11:00;1.40;;;1.00;;
54177;SDS011;40085;53.004;6.770;2022-09-03T22:13:58;0.85;;;0.75;;
54177;SDS011;40085;53.004;6.770;2022-09-03T22:16:26;1.52;;;0.70;;
54177;SDS011;40085;53.004;6.770;2022-09-03T22:24:53;3.30;;;0.90;;
54177;SDS011;40085;53.004;6.770;2022-09-03T22:27:39;2.40;;;1.20;;
54177;SDS011;40085;53.004;6.770;2022-09-03T22:30:28;1.35;;;0.70;;
54177;SDS011;40085;53.004;6.770;2022-09-03T22:33:05;1.55;;;0.80;;
54177;SDS011;40085;53.004;6.770;2022-09-03T22:35:56;1.17;;;0.80;;
54177;SDS011;40085;53.004;6.770;2022-09-03T22:43:41;1.25;;;0.82;;
54177;SDS011;40085;53.004;6.770;2022-09-03T22:46:13;0.93;;;0.70;;
54177;SDS011;40085;53.004;6.770;2022-09-03T22:51:16;1.33;;;0.90;;
54177;SDS011;40085;53.004;6.770;2022-09-03T22:53:58;0.88;;;0.80;;
54177;SDS011;40085;53.004;6.770;2022-09-03T22:56:41;1.95;;;0.65;;
54177;SDS011;40085;53.004;6.770;2022-09-03T23:01:59;1.08;;;0.80;;
54177;SDS011;40085;53.004;6.770;2022-09-03T23:04:41;0.85;;;0.60;;